createdAt,value
2019-03-26T00:00:34.802Z,2.64
2019-03-26T00:01:44.736Z,2.69
2019-03-26T00:02:54.656Z,2.51
2019-03-26T00:04:10.813Z,2.52
2019-03-26T00:05:20.786Z,2.5
2019-03-26T00:06:30.711Z,2.41
2019-03-26T00:07:40.628Z,2.4
2019-03-26T00:08:50.549Z,2.43
2019-03-26T00:10:00.480Z,2.33
2019-03-26T00:11:10.490Z,2.25
2019-03-26T00:12:20.406Z,2.33
2019-03-26T00:13:30.323Z,2.19
2019-03-26T00:14:39.987Z,2.19
2019-03-26T00:15:49.917Z,2.16
2019-03-26T00:16:59.947Z,2.18
2019-03-26T00:18:09.878Z,2.12
2019-03-26T00:19:19.804Z,2.15
2019-03-26T00:20:29.729Z,2.01
2019-03-26T00:21:39.651Z,2.05
2019-03-26T00:22:49.667Z,2.15
2019-03-26T00:23:59.660Z,2.03
2019-03-26T00:25:09.586Z,2.04
2019-03-26T00:26:19.508Z,2.07
2019-03-26T00:27:29.425Z,2.04
2019-03-26T00:28:39.454Z,1.95
2019-03-26T00:29:49.378Z,1.97
2019-03-26T00:30:59.300Z,1.86
2019-03-26T00:32:09.219Z,1.93
2019-03-26T00:33:19.136Z,1.88
2019-03-26T00:34:41.675Z,1.95
2019-03-26T00:35:51.707Z,1.98
2019-03-26T00:37:01.636Z,2
2019-03-26T00:38:11.316Z,1.89
2019-03-26T00:39:21.232Z,1.89
2019-03-26T00:40:31.224Z,1.95
2019-03-26T00:41:41.144Z,1.95
2019-03-26T00:42:51.079Z,1.81
2019-03-26T00:44:00.997Z,1.95
2019-03-26T00:45:10.921Z,1.88
2019-03-26T00:46:20.936Z,1.97
2019-03-26T00:47:30.858Z,1.92
2019-03-26T00:48:40.782Z,1.85
2019-03-26T00:49:50.701Z,1.86
2019-03-26T00:51:00.628Z,1.81
2019-03-26T00:52:10.593Z,1.82
2019-03-26T00:53:20.259Z,1.7
2019-03-26T00:54:30.189Z,1.75
2019-03-26T00:55:40.113Z,1.74
2019-03-26T00:56:50.040Z,1.68
2019-03-26T00:58:01.596Z,1.66
2019-03-26T00:59:11.658Z,1.64
2019-03-26T01:00:21.608Z,1.74
2019-03-26T01:01:31.525Z,1.75
2019-03-26T01:02:41.440Z,1.76
2019-03-26T01:03:51.372Z,1.84
2019-03-26T01:05:02.797Z,1.84
2019-03-26T01:06:12.737Z,1.74
2019-03-26T01:07:22.666Z,1.7
2019-03-26T01:08:32.583Z,1.75
2019-03-26T01:09:42.362Z,1.86
2019-03-26T01:10:52.281Z,1.86
2019-03-26T01:12:02.236Z,1.81
2019-03-26T01:13:12.159Z,1.78
2019-03-26T01:14:21.827Z,1.84
2019-03-26T01:15:31.900Z,1.81
2019-03-26T01:16:41.819Z,1.71
2019-03-26T01:17:51.736Z,1.75
2019-03-26T01:19:01.656Z,1.88
2019-03-26T01:20:11.323Z,1.82
2019-03-26T01:21:21.340Z,1.84
2019-03-26T01:22:31.258Z,1.88
2019-03-26T01:23:41.171Z,1.89
2019-03-26T01:24:51.091Z,1.95
2019-03-26T01:26:01.009Z,2.01
2019-03-26T01:27:11.046Z,2.04
2019-03-26T01:28:20.964Z,2.14
2019-03-26T01:29:30.889Z,2.04
2019-03-26T01:30:40.814Z,2.04
2019-03-26T01:31:50.726Z,2.1
2019-03-26T01:33:00.694Z,2.08
2019-03-26T01:34:10.354Z,2.08
2019-03-26T01:35:20.273Z,2.04
2019-03-26T01:36:30.202Z,1.97
2019-03-26T01:37:40.123Z,2.07
2019-03-26T01:38:49.963Z,1.93
2019-03-26T01:39:59.881Z,1.89
2019-03-26T01:41:09.798Z,2.03
2019-03-26T01:42:19.714Z,2.01
2019-03-26T01:43:29.629Z,2
2019-03-26T01:44:39.643Z,1.84
2019-03-26T01:45:49.555Z,1.95
2019-03-26T01:46:59.471Z,1.95
2019-03-26T01:48:09.394Z,1.86
2019-03-26T01:49:19.310Z,1.84
2019-03-26T01:50:29.275Z,1.81
2019-03-26T01:51:39.190Z,1.78
2019-03-26T01:52:49.117Z,1.84
2019-03-26T01:53:59.043Z,1.84
2019-03-26T01:55:09.014Z,1.79
2019-03-26T01:56:19.030Z,1.86
2019-03-26T01:57:28.946Z,1.85
2019-03-26T01:58:38.883Z,1.85
2019-03-26T01:59:48.547Z,1.88
2019-03-26T02:00:58.468Z,1.79
2019-03-26T02:02:08.499Z,1.75
2019-03-26T02:03:18.422Z,1.64
2019-03-26T02:04:28.344Z,1.64
2019-03-26T02:05:38.273Z,1.6
2019-03-26T02:06:48.192Z,1.57
2019-03-26T02:07:58.211Z,1.48
2019-03-26T02:09:08.134Z,1.52
2019-03-26T02:10:18.063Z,1.53
2019-03-26T02:11:27.985Z,1.57
2019-03-26T02:12:37.905Z,1.66
2019-03-26T02:13:47.821Z,1.57
2019-03-26T02:14:57.743Z,1.6
2019-03-26T02:16:07.988Z,1.56
2019-03-26T02:17:17.905Z,1.58
2019-03-26T02:18:27.827Z,1.5
2019-03-26T02:19:37.847Z,1.5
2019-03-26T02:20:47.763Z,1.5
2019-03-26T02:21:57.678Z,1.48
2019-03-26T02:23:07.607Z,1.32
2019-03-26T02:24:17.531Z,1.39
2019-03-26T02:25:27.627Z,1.31
2019-03-26T02:26:37.546Z,1.25
2019-03-26T02:27:47.462Z,1.25
2019-03-26T02:28:57.383Z,1.25
2019-03-26T02:30:07.446Z,1.24
2019-03-26T02:31:17.498Z,1.18
2019-03-26T02:32:27.434Z,1.21
2019-03-26T02:33:37.365Z,1.22
2019-03-26T02:34:47.303Z,1.38
2019-03-26T02:35:57.378Z,1.36
2019-03-26T02:37:07.314Z,1.39
2019-03-26T02:38:17.271Z,1.53
2019-03-26T02:39:27.210Z,1.6
2019-03-26T02:40:37.140Z,1.58
2019-03-26T02:41:47.092Z,1.74
2019-03-26T02:42:57.126Z,1.74
2019-03-26T02:44:07.069Z,1.78
2019-03-26T02:45:17.005Z,1.85
2019-03-26T02:46:26.933Z,1.82
2019-03-26T02:47:37.009Z,1.84
2019-03-26T02:48:47.052Z,1.88
2019-03-26T02:49:56.987Z,1.81
2019-03-26T02:51:06.967Z,1.86
2019-03-26T02:52:16.909Z,1.93
2019-03-26T02:53:26.861Z,1.86
2019-03-26T02:54:36.715Z,1.82
2019-03-26T02:55:46.648Z,1.74
2019-03-26T02:56:56.095Z,1.71
2019-03-26T02:58:06.030Z,1.71
2019-03-26T02:59:15.967Z,1.64
2019-03-26T03:00:26.000Z,1.66
2019-03-26T03:01:35.940Z,1.57
2019-03-26T03:02:45.863Z,1.56
2019-03-26T03:03:55.793Z,1.53
2019-03-26T03:05:05.744Z,1.58
2019-03-26T03:06:15.671Z,1.5
2019-03-26T03:07:25.622Z,1.5
2019-03-26T03:08:35.575Z,1.5
2019-03-26T03:09:45.579Z,1.46
2019-03-26T03:10:55.508Z,1.49
2019-03-26T03:12:05.545Z,1.43
2019-03-26T03:13:15.481Z,1.45
2019-03-26T03:14:25.418Z,1.46
2019-03-26T03:15:35.358Z,1.45
2019-03-26T03:16:45.481Z,1.39
2019-03-26T03:17:55.552Z,1.38
2019-03-26T03:19:05.506Z,1.36
2019-03-26T03:20:15.181Z,1.4
2019-03-26T03:21:25.150Z,1.28
2019-03-26T03:22:34.841Z,1.27
2019-03-26T03:23:44.772Z,1.22
2019-03-26T03:24:54.702Z,1.21
2019-03-26T03:26:04.641Z,1.22
2019-03-26T03:27:14.601Z,1.25
2019-03-26T03:28:24.619Z,1.28
2019-03-26T03:29:34.426Z,1.27
2019-03-26T03:30:44.392Z,1.24
2019-03-26T03:31:54.388Z,1.2
2019-03-26T03:33:04.369Z,1.04
2019-03-26T03:34:14.378Z,1.03
2019-03-26T03:35:24.464Z,1.09
2019-03-26T03:36:34.400Z,1.06
2019-03-26T03:37:44.324Z,0.99
2019-03-26T03:38:54.254Z,0.95
2019-03-26T03:40:04.271Z,0.85
2019-03-26T03:41:14.333Z,0.81
2019-03-26T03:42:24.250Z,0.64
2019-03-26T03:43:34.200Z,0.66
2019-03-26T03:44:44.153Z,0.45
2019-03-26T03:45:54.142Z,0.47
2019-03-26T03:47:04.301Z,0.36
2019-03-26T03:48:14.261Z,0.48
2019-03-26T03:49:24.214Z,0.47
2019-03-26T03:50:34.157Z,0.48
2019-03-26T03:51:44.121Z,0.61
2019-03-26T03:52:54.288Z,0.64
2019-03-26T03:54:04.017Z,0.78
2019-03-26T03:55:13.713Z,0.96
2019-03-26T03:56:23.646Z,1
2019-03-26T03:57:33.574Z,1.02
2019-03-26T03:58:43.694Z,1.13
2019-03-26T03:59:53.618Z,1.22
2019-03-26T04:01:03.739Z,1.38
2019-03-26T04:02:13.706Z,1.43
2019-03-26T04:03:23.635Z,1.42
2019-03-26T04:04:33.565Z,1.45
2019-03-26T04:05:43.493Z,1.49
2019-03-26T04:06:53.523Z,1.52
2019-03-26T04:08:03.474Z,1.49
2019-03-26T04:09:13.403Z,1.43
2019-03-26T04:10:23.395Z,1.4
2019-03-26T04:11:33.334Z,1.36
2019-03-26T04:12:43.288Z,1.49
2019-03-26T04:13:53.218Z,1.39
2019-03-26T04:15:03.170Z,1.42
2019-03-26T04:16:13.260Z,1.45
2019-03-26T04:17:23.211Z,1.32
2019-03-26T04:18:33.141Z,1.21
2019-03-26T04:19:42.809Z,1.25
2019-03-26T04:20:52.740Z,1.3
2019-03-26T04:22:02.680Z,1.22
2019-03-26T04:23:12.634Z,1.22
2019-03-26T04:24:22.608Z,1.22
2019-03-26T04:25:32.559Z,1.32
2019-03-26T04:26:42.573Z,1.2
2019-03-26T04:27:52.649Z,1.25
2019-03-26T04:29:02.677Z,1.16
2019-03-26T04:30:12.645Z,1.14
2019-03-26T04:31:22.580Z,1.13
2019-03-26T04:32:32.522Z,1.22
2019-03-26T04:33:42.601Z,1.43
2019-03-26T04:34:52.533Z,1.31
2019-03-26T04:36:02.474Z,1.25
2019-03-26T04:37:12.394Z,1.27
2019-03-26T04:38:22.315Z,1.24
2019-03-26T04:39:31.996Z,1.24
2019-03-26T04:40:41.931Z,1.24
2019-03-26T04:41:51.875Z,1.32
2019-03-26T04:43:01.799Z,1.39
2019-03-26T04:44:11.753Z,1.34
2019-03-26T04:45:21.887Z,1.38
2019-03-26T04:46:31.806Z,1.28
2019-03-26T04:47:41.735Z,1.27
2019-03-26T04:48:51.648Z,1.22
2019-03-26T04:50:01.559Z,1.24
2019-03-26T04:51:11.475Z,1.25
2019-03-26T04:52:21.134Z,1.24
2019-03-26T04:53:34.035Z,1.28
2019-03-26T04:54:44.193Z,1.24
2019-03-26T04:55:54.112Z,1.25
2019-03-26T04:57:04.134Z,1.25
2019-03-26T04:58:14.054Z,1.25
2019-03-26T04:59:24.048Z,1.24
2019-03-26T05:00:33.973Z,1.32
2019-03-26T05:01:43.917Z,1.31
2019-03-26T05:02:53.963Z,1.39
2019-03-26T05:04:03.640Z,1.36
2019-03-26T05:05:16.950Z,1.42
2019-03-26T05:06:39.806Z,1.43
2019-03-26T05:07:49.726Z,1.36
2019-03-26T05:08:59.763Z,1.24
2019-03-26T05:10:09.678Z,1.24
2019-03-26T05:11:19.349Z,1.24
2019-03-26T05:12:29.265Z,1.31
2019-03-26T05:13:39.225Z,1.46
2019-03-26T05:14:49.146Z,1.34
2019-03-26T05:15:59.075Z,1.24
2019-03-26T05:17:09.014Z,1.27
2019-03-26T05:18:18.945Z,1.24
2019-03-26T05:19:28.924Z,1.24
2019-03-26T05:20:38.844Z,1.13
2019-03-26T05:21:48.765Z,1.12
2019-03-26T05:22:58.773Z,1.13
2019-03-26T05:24:08.719Z,1.16
2019-03-26T05:25:18.640Z,1.18
2019-03-26T05:26:28.557Z,1.21
2019-03-26T05:27:50.228Z,1.2
2019-03-26T05:29:00.142Z,1.22
2019-03-26T05:30:10.075Z,1.18
2019-03-26T05:31:20.105Z,1.27
2019-03-26T05:32:30.021Z,1.18
2019-03-26T05:33:39.944Z,1.24
2019-03-26T05:34:49.867Z,1.24
2019-03-26T05:35:59.886Z,1.27
2019-03-26T05:37:09.820Z,1.2
2019-03-26T05:38:19.753Z,1.3
2019-03-26T05:39:29.680Z,1.27
2019-03-26T05:40:39.600Z,1.21
2019-03-26T05:41:49.529Z,1.24
2019-03-26T05:42:59.462Z,1.2
2019-03-26T05:44:09.128Z,1.24
2019-03-26T05:45:19.058Z,1.18
2019-03-26T05:46:28.987Z,1.18
2019-03-26T05:47:38.921Z,1.22
2019-03-26T05:48:48.841Z,1.24
2019-03-26T05:49:58.773Z,1.24
2019-03-26T05:51:08.692Z,1.34
2019-03-26T05:52:18.604Z,1.32
2019-03-26T05:53:28.580Z,1.38
2019-03-26T05:54:38.501Z,1.4
2019-03-26T05:55:48.424Z,1.38
2019-03-26T05:56:58.348Z,1.36
2019-03-26T05:58:08.283Z,1.42
2019-03-26T05:59:18.304Z,1.5
2019-03-26T06:00:28.221Z,1.6
2019-03-26T06:01:38.138Z,1.58
2019-03-26T06:02:48.055Z,1.6
2019-03-26T06:03:57.971Z,1.56
2019-03-26T06:05:07.992Z,1.52
2019-03-26T06:06:17.913Z,1.52
2019-03-26T06:07:27.577Z,1.6
2019-03-26T06:08:39.030Z,1.68
2019-03-26T06:09:48.948Z,1.67
2019-03-26T06:10:58.973Z,1.67
2019-03-26T06:12:08.973Z,1.64
2019-03-26T06:13:18.899Z,1.56
2019-03-26T06:14:28.823Z,1.66
2019-03-26T06:15:38.792Z,1.64
2019-03-26T06:16:48.717Z,1.7
2019-03-26T06:18:00.105Z,1.85
2019-03-26T06:19:10.045Z,1.82
2019-03-26T06:20:19.964Z,1.93
2019-03-26T06:21:29.670Z,1.89
2019-03-26T06:22:39.724Z,2.04
2019-03-26T06:23:49.651Z,2.01
2019-03-26T06:25:01.348Z,2.01
2019-03-26T06:26:11.290Z,2.05
2019-03-26T06:27:21.214Z,2.1
2019-03-26T06:28:31.230Z,2.14
2019-03-26T06:29:40.922Z,2.12
2019-03-26T06:30:50.925Z,2.12
2019-03-26T06:32:00.847Z,2.15
2019-03-26T06:33:10.777Z,2.03
2019-03-26T06:34:20.559Z,2.12
2019-03-26T06:35:30.500Z,2.23
2019-03-26T06:36:40.420Z,2.19
2019-03-26T06:37:50.347Z,2.21
2019-03-26T06:39:00.270Z,2.3
2019-03-26T06:40:10.287Z,2.25
2019-03-26T06:41:19.952Z,2.34
2019-03-26T06:42:29.879Z,2.34
2019-03-26T06:43:39.808Z,2.41
2019-03-26T06:44:49.728Z,2.34
2019-03-26T06:45:59.698Z,2.39
2019-03-26T06:47:09.624Z,2.36
2019-03-26T06:48:19.579Z,2.37
2019-03-26T06:49:29.500Z,2.26
2019-03-26T06:50:39.429Z,2.19
2019-03-26T06:51:49.346Z,2.23
2019-03-26T06:52:59.263Z,2.14
2019-03-26T06:54:09.183Z,2.18
2019-03-26T06:55:19.107Z,2.16
2019-03-26T06:56:29.025Z,2.23
2019-03-26T06:57:40.788Z,2.18
2019-03-26T06:58:50.715Z,2.14
2019-03-26T07:00:00.630Z,2.18
2019-03-26T07:01:12.439Z,2.08
2019-03-26T07:02:22.107Z,2.16
2019-03-26T07:03:32.128Z,2.21
2019-03-26T07:04:42.054Z,2.25
2019-03-26T07:05:51.973Z,2.18
2019-03-26T07:07:02.860Z,2.19
2019-03-26T07:08:12.813Z,2.28
2019-03-26T07:09:22.844Z,2.34
2019-03-26T07:10:32.528Z,2.44
2019-03-26T07:11:42.197Z,2.39
2019-03-26T07:12:52.120Z,2.41
2019-03-26T07:14:01.830Z,2.36
2019-03-26T07:15:11.611Z,2.41
2019-03-26T07:16:21.600Z,2.41
2019-03-26T07:17:32.165Z,2.39
2019-03-26T07:18:42.094Z,2.37
2019-03-26T07:19:52.018Z,2.41
2019-03-26T07:21:02.008Z,2.41
2019-03-26T07:22:11.926Z,2.47
2019-03-26T07:23:21.597Z,2.47
2019-03-26T07:24:31.525Z,2.43
2019-03-26T07:25:41.445Z,2.43
2019-03-26T07:26:51.366Z,2.41
2019-03-26T07:28:01.323Z,2.47
2019-03-26T07:29:11.244Z,2.59
2019-03-26T07:30:21.170Z,2.7
2019-03-26T07:31:31.090Z,2.72
2019-03-26T07:32:41.058Z,2.76
2019-03-26T07:33:50.995Z,2.88
2019-03-26T07:35:00.738Z,2.93
2019-03-26T07:36:10.685Z,2.94
2019-03-26T07:37:20.362Z,3.09
2019-03-26T07:38:30.397Z,3.18
2019-03-26T07:39:41.573Z,3.31
2019-03-26T07:40:51.500Z,3.33
2019-03-26T07:42:01.429Z,3.45
2019-03-26T07:43:11.356Z,3.49
2019-03-26T07:44:21.378Z,3.4
2019-03-26T07:45:31.306Z,3.49
2019-03-26T07:46:41.230Z,3.52
2019-03-26T07:47:51.171Z,3.53
2019-03-26T07:49:00.846Z,3.55
2019-03-26T07:50:13.821Z,3.36
2019-03-26T07:51:24.025Z,3.18
2019-03-26T07:52:34.030Z,3.22
2019-03-26T07:53:43.967Z,3.16
2019-03-26T07:54:53.891Z,3.08
2019-03-26T07:56:03.875Z,3.05
2019-03-26T07:57:13.800Z,3.16
2019-03-26T07:58:23.725Z,3.22
2019-03-26T07:59:33.645Z,3.34
2019-03-26T08:00:43.679Z,3.43
2019-03-26T08:01:53.602Z,3.58
2019-03-26T08:03:03.524Z,3.53
2019-03-26T08:04:15.049Z,3.67
2019-03-26T08:05:34.294Z,3.59
2019-03-26T08:06:44.214Z,3.56
2019-03-26T08:08:03.255Z,3.63
2019-03-26T08:09:13.181Z,3.71
2019-03-26T08:10:23.179Z,3.63
2019-03-26T08:11:33.159Z,3.61
2019-03-26T08:12:43.172Z,3.55
2019-03-26T08:13:53.226Z,3.67
2019-03-26T08:15:03.213Z,3.63
2019-03-26T08:16:12.933Z,3.55
2019-03-26T08:17:23.059Z,3.55
2019-03-26T08:18:33.014Z,3.58
2019-03-26T08:19:42.966Z,3.76
2019-03-26T08:20:52.898Z,3.76
2019-03-26T08:22:05.128Z,3.91
2019-03-26T08:23:15.071Z,3.94
2019-03-26T08:24:25.001Z,3.77
2019-03-26T08:25:36.517Z,3.73
2019-03-26T08:26:46.442Z,3.67
2019-03-26T08:27:59.619Z,3.68
2019-03-26T08:29:12.639Z,3.67
2019-03-26T08:30:22.557Z,3.58
2019-03-26T08:31:32.581Z,3.67
2019-03-26T08:32:42.507Z,3.77
2019-03-26T08:33:52.428Z,3.64
2019-03-26T08:35:02.355Z,3.64
2019-03-26T08:36:12.280Z,3.82
2019-03-26T08:37:22.369Z,3.84
2019-03-26T08:38:33.578Z,3.91
2019-03-26T08:39:43.614Z,3.81
2019-03-26T08:40:53.548Z,3.91
2019-03-26T08:42:03.480Z,4
2019-03-26T08:43:13.433Z,4.02
2019-03-26T08:44:23.351Z,4.07
2019-03-26T08:45:33.283Z,4.13
2019-03-26T08:46:46.154Z,4.2
2019-03-26T08:47:56.286Z,4.3
2019-03-26T08:49:06.290Z,4.27
2019-03-26T08:50:19.403Z,4.3
2019-03-26T08:51:29.090Z,4.1
2019-03-26T08:52:39.018Z,4.13
2019-03-26T08:53:48.940Z,4.1
2019-03-26T08:54:58.859Z,4.14
2019-03-26T08:56:12.026Z,4.18
2019-03-26T08:57:22.045Z,4.22
2019-03-26T08:58:31.813Z,4.18
2019-03-26T08:59:41.673Z,4.3
2019-03-26T09:00:51.673Z,4.32
2019-03-26T09:02:01.601Z,4.32
2019-03-26T09:03:11.531Z,4.32
2019-03-26T09:04:21.316Z,4.32
2019-03-26T09:05:34.529Z,4.27
2019-03-26T09:06:44.297Z,4.1
2019-03-26T09:07:54.229Z,4.13
2019-03-26T09:09:04.221Z,3.95
2019-03-26T09:10:14.151Z,3.92
2019-03-26T09:11:24.075Z,3.91
2019-03-26T09:12:34.162Z,3.91
2019-03-26T09:13:47.187Z,3.96
2019-03-26T09:14:57.115Z,4.06
2019-03-26T09:16:07.052Z,4.07
2019-03-26T09:17:19.647Z,4.07
2019-03-26T09:18:29.778Z,4.22
2019-03-26T09:19:39.790Z,4.34
2019-03-26T09:20:49.718Z,4.56
2019-03-26T09:21:59.646Z,4.45
2019-03-26T09:23:12.137Z,4.49
2019-03-26T09:24:22.389Z,4.57
2019-03-26T09:25:32.319Z,4.67
2019-03-26T09:26:42.245Z,4.74
2019-03-26T09:27:54.864Z,4.86
2019-03-26T09:29:04.552Z,4.9
2019-03-26T09:30:14.478Z,5.02
2019-03-26T09:31:24.402Z,5.22
2019-03-26T09:32:34.344Z,5.2
2019-03-26T09:33:44.277Z,5.37
2019-03-26T09:34:54.196Z,5.36
2019-03-26T09:36:04.121Z,5.47
2019-03-26T09:37:14.047Z,5.65
2019-03-26T09:38:23.743Z,5.67
2019-03-26T09:39:46.387Z,5.77
2019-03-26T09:40:56.370Z,5.95
2019-03-26T09:42:06.397Z,5.87
2019-03-26T09:43:16.329Z,5.81
2019-03-26T09:44:26.254Z,5.84
2019-03-26T09:45:36.179Z,5.97
2019-03-26T09:46:46.203Z,6.07
2019-03-26T09:47:56.129Z,5.95
2019-03-26T09:49:06.057Z,6.02
2019-03-26T09:50:15.982Z,6.01
2019-03-26T09:51:25.903Z,5.91
2019-03-26T09:52:35.829Z,5.98
2019-03-26T09:53:45.756Z,5.97
2019-03-26T09:54:55.690Z,6.02
2019-03-26T09:56:05.616Z,5.97
2019-03-26T09:57:15.599Z,6.02
2019-03-26T09:58:25.623Z,5.98
2019-03-26T09:59:35.546Z,6.1
2019-03-26T10:00:45.973Z,6.2
2019-03-26T10:01:56.595Z,6.35
2019-03-26T10:03:06.524Z,6.35
2019-03-26T10:04:16.485Z,6.41
2019-03-26T10:05:26.412Z,6.62
2019-03-26T10:06:36.342Z,6.56
2019-03-26T10:07:46.419Z,6.6
2019-03-26T10:08:57.739Z,6.52
2019-03-26T10:10:07.762Z,6.65
2019-03-26T10:11:17.687Z,6.86
2019-03-26T10:12:27.626Z,6.78
2019-03-26T10:13:38.960Z,6.72
2019-03-26T10:14:48.884Z,6.9
2019-03-26T10:15:58.863Z,7.07
2019-03-26T10:17:08.817Z,7.08
2019-03-26T10:18:18.762Z,6.92
2019-03-26T10:19:28.716Z,7.04
2019-03-26T10:20:38.654Z,6.89
2019-03-26T10:21:48.579Z,6.95
2019-03-26T10:22:58.506Z,6.77
2019-03-26T10:24:08.447Z,6.9
2019-03-26T10:25:18.371Z,6.96
2019-03-26T10:26:28.382Z,6.95
2019-03-26T10:27:39.991Z,6.95
2019-03-26T10:28:49.938Z,6.8
2019-03-26T10:29:59.868Z,6.82
2019-03-26T10:31:11.157Z,6.82
2019-03-26T10:32:20.832Z,6.75
2019-03-26T10:33:30.805Z,6.87
2019-03-26T10:34:41.511Z,7.08
2019-03-26T10:35:51.441Z,7.19
2019-03-26T10:37:01.369Z,6.97
2019-03-26T10:38:11.298Z,6.96
2019-03-26T10:39:21.333Z,7.11
2019-03-26T10:40:31.261Z,7.11
2019-03-26T10:41:41.207Z,7.11
2019-03-26T10:42:51.143Z,6.83
2019-03-26T10:44:01.072Z,6.67
2019-03-26T10:45:11.185Z,6.43
2019-03-26T10:46:21.125Z,6.13
2019-03-26T10:47:31.055Z,5.97
2019-03-26T10:48:40.996Z,6.1
2019-03-26T10:49:50.925Z,6.15
2019-03-26T10:51:00.897Z,6.15
2019-03-26T10:52:10.837Z,6.35
2019-03-26T10:53:20.832Z,6.47
2019-03-26T10:54:30.520Z,6.59
2019-03-26T10:55:40.447Z,6.71
2019-03-26T10:56:50.377Z,6.8
2019-03-26T10:58:00.305Z,6.89
2019-03-26T10:59:10.235Z,7.04
2019-03-26T11:00:20.156Z,6.78
2019-03-26T11:01:30.086Z,6.75
2019-03-26T11:02:40.024Z,6.47
2019-03-26T11:03:49.952Z,6.44
2019-03-26T11:04:59.881Z,6.35
2019-03-26T11:06:09.812Z,6.44
2019-03-26T11:07:19.770Z,6.56
2019-03-26T11:08:29.743Z,6.67
2019-03-26T11:09:39.696Z,6.6
2019-03-26T11:10:49.635Z,6.5
2019-03-26T11:11:59.562Z,6.56
2019-03-26T11:13:09.486Z,6.71
2019-03-26T11:14:19.413Z,6.87
2019-03-26T11:15:29.337Z,6.77
2019-03-26T11:16:39.266Z,6.77
2019-03-26T11:17:49.194Z,7.08
2019-03-26T11:18:59.128Z,7.29
2019-03-26T11:20:09.062Z,7.41
2019-03-26T11:21:19.009Z,7.78
2019-03-26T11:22:28.957Z,7.62
2019-03-26T11:23:38.643Z,7.22
2019-03-26T11:24:48.572Z,7.13
2019-03-26T11:25:58.553Z,7.14
2019-03-26T11:27:08.570Z,7.37
2019-03-26T11:28:18.517Z,7.61
2019-03-26T11:29:28.445Z,7.58
2019-03-26T11:30:38.372Z,7.69
2019-03-26T11:31:48.086Z,7.83
2019-03-26T11:32:58.020Z,8.17
2019-03-26T11:34:07.955Z,8.18
2019-03-26T11:35:17.880Z,8.24
2019-03-26T11:36:27.811Z,8.21
2019-03-26T11:37:37.246Z,8.38
2019-03-26T11:38:47.173Z,8.41
2019-03-26T11:39:57.191Z,8.71
2019-03-26T11:41:07.180Z,8.79
2019-03-26T11:42:17.108Z,9.03
2019-03-26T11:43:27.097Z,8.97
2019-03-26T11:44:37.032Z,9.21
2019-03-26T11:45:46.976Z,8.78
2019-03-26T11:46:56.912Z,8.79
2019-03-26T11:48:06.931Z,9.16
2019-03-26T11:49:16.861Z,9.02
2019-03-26T11:50:26.793Z,8.93
2019-03-26T11:51:36.719Z,8.77
2019-03-26T11:52:46.648Z,8.77
2019-03-26T11:53:56.578Z,8.6
2019-03-26T11:55:06.513Z,8.72
2019-03-26T11:56:16.449Z,8.54
2019-03-26T11:57:26.143Z,8.74
2019-03-26T11:58:36.070Z,8.79
2019-03-26T11:59:46.002Z,8.95
2019-03-26T12:00:56.009Z,8.97
2019-03-26T12:02:05.944Z,9.27
2019-03-26T12:03:15.941Z,9.39
2019-03-26T12:04:25.874Z,9.58
2019-03-26T12:05:35.862Z,9.64
2019-03-26T12:06:45.866Z,9.64
2019-03-26T12:07:55.795Z,9.64
2019-03-26T12:09:05.746Z,9.77
2019-03-26T12:10:15.683Z,10
2019-03-26T12:11:25.612Z,10.17
2019-03-26T12:12:35.644Z,10.25
2019-03-26T12:13:45.571Z,10.55
2019-03-26T12:14:55.517Z,10.49
2019-03-26T12:16:05.530Z,10.62
2019-03-26T12:17:17.407Z,10.65
2019-03-26T12:18:27.393Z,10.76
2019-03-26T12:19:37.348Z,10.87
2019-03-26T12:20:47.277Z,10.87
2019-03-26T12:21:57.206Z,10.94
2019-03-26T12:23:07.153Z,11.05
2019-03-26T12:24:16.857Z,11.02
2019-03-26T12:25:26.797Z,10.95
2019-03-26T12:26:36.555Z,10.82
2019-03-26T12:27:46.494Z,10.68
2019-03-26T12:28:56.455Z,10.68
2019-03-26T12:30:06.157Z,10.55
2019-03-26T12:31:16.097Z,10.51
2019-03-26T12:32:25.791Z,10.59
2019-03-26T12:33:35.467Z,10.57
2019-03-26T12:34:45.421Z,10.77
2019-03-26T12:35:55.422Z,10.79
2019-03-26T12:37:05.403Z,10.82
2019-03-26T12:38:15.337Z,10.97
2019-03-26T12:39:25.271Z,11.04
2019-03-26T12:40:35.205Z,11.07
2019-03-26T12:41:45.244Z,11.1
2019-03-26T12:42:55.194Z,11.18
2019-03-26T12:44:05.225Z,11.23
2019-03-26T12:45:15.171Z,11.41
2019-03-26T12:46:25.189Z,11.31
2019-03-26T12:47:35.130Z,11.19
2019-03-26T12:48:44.821Z,10.92
2019-03-26T12:49:54.763Z,10.72
2019-03-26T12:51:04.692Z,10.49
2019-03-26T12:52:14.627Z,10.55
2019-03-26T12:53:24.624Z,10.59
2019-03-26T12:54:34.557Z,10.71
2019-03-26T12:55:44.489Z,10.86
2019-03-26T12:56:54.432Z,11.02
2019-03-26T12:58:04.374Z,11.25
2019-03-26T12:59:14.051Z,11.51
2019-03-26T13:00:23.986Z,11.6
2019-03-26T13:01:34.000Z,11.78
2019-03-26T13:02:43.932Z,11.91
2019-03-26T13:03:53.916Z,12.11
2019-03-26T13:05:17.079Z,12.35
2019-03-26T13:06:28.552Z,12.54
2019-03-26T13:07:38.487Z,12.65
2019-03-26T13:08:48.416Z,12.87
2019-03-26T13:09:58.345Z,13.01
2019-03-26T13:11:22.087Z,13.17
2019-03-26T13:12:32.019Z,13.26
2019-03-26T13:13:41.946Z,13.43
2019-03-26T13:14:51.882Z,13.49
2019-03-26T13:16:04.704Z,13.62
2019-03-26T13:17:14.640Z,13.75
2019-03-26T13:18:24.646Z,13.78
2019-03-26T13:19:34.585Z,13.75
2019-03-26T13:20:44.594Z,13.67
2019-03-26T13:21:55.544Z,13.58
2019-03-26T13:23:05.477Z,13.6
2019-03-26T13:24:16.459Z,13.76
2019-03-26T13:25:26.397Z,13.79
2019-03-26T13:26:36.326Z,13.93
2019-03-26T13:27:46.309Z,13.87
2019-03-26T13:28:56.245Z,13.78
2019-03-26T13:30:06.198Z,13.8
2019-03-26T13:31:16.128Z,13.83
2019-03-26T13:32:26.067Z,13.76
2019-03-26T13:33:36.007Z,13.86
2019-03-26T13:34:45.947Z,13.93
2019-03-26T13:35:55.920Z,14.05
2019-03-26T13:37:05.856Z,13.94
2019-03-26T13:38:15.797Z,13.95
2019-03-26T13:39:25.813Z,13.87
2019-03-26T13:40:35.506Z,13.85
2019-03-26T13:41:45.440Z,13.62
2019-03-26T13:42:55.379Z,13.37
2019-03-26T13:44:05.316Z,13.16
2019-03-26T13:45:15.357Z,12.91
2019-03-26T13:46:25.310Z,12.51
2019-03-26T13:47:35.241Z,12.28
2019-03-26T13:48:45.172Z,11.88
2019-03-26T13:49:55.106Z,11.59
2019-03-26T13:51:05.067Z,11.34
2019-03-26T13:52:15.010Z,11.07
2019-03-26T13:53:24.944Z,11
2019-03-26T13:54:34.884Z,10.86
2019-03-26T13:55:44.824Z,10.53
2019-03-26T13:56:54.762Z,10.36
2019-03-26T13:58:04.693Z,10.3
2019-03-26T13:59:14.625Z,10.03
2019-03-26T14:00:24.563Z,9.99
2019-03-26T14:01:34.493Z,9.92
2019-03-26T14:02:44.480Z,9.76
2019-03-26T14:03:54.411Z,9.4
2019-03-26T14:05:04.352Z,9.21
2019-03-26T14:06:14.278Z,8.84
2019-03-26T14:07:23.960Z,8.54
2019-03-26T14:08:33.892Z,8.39
2019-03-26T14:09:43.823Z,8.18
2019-03-26T14:10:53.761Z,7.96
2019-03-26T14:12:03.701Z,7.84
2019-03-26T14:13:13.627Z,7.67
2019-03-26T14:14:23.670Z,7.48
2019-03-26T14:15:33.609Z,7.37
2019-03-26T14:16:43.535Z,7.33
2019-03-26T14:17:53.460Z,7.14
2019-03-26T14:19:03.386Z,7.22
2019-03-26T14:20:13.367Z,7.11
2019-03-26T14:21:23.311Z,7.08
2019-03-26T14:22:33.231Z,7.03
2019-03-26T14:23:43.160Z,6.93
2019-03-26T14:24:52.835Z,6.89
2019-03-26T14:26:02.762Z,6.77
2019-03-26T14:27:12.699Z,6.72
2019-03-26T14:28:22.641Z,6.7
2019-03-26T14:29:32.573Z,6.59
2019-03-26T14:30:42.526Z,6.59
2019-03-26T14:31:52.457Z,6.64
2019-03-26T14:33:02.384Z,6.6
2019-03-26T14:34:12.061Z,6.59
2019-03-26T14:35:21.985Z,6.5
2019-03-26T14:36:31.920Z,6.41
2019-03-26T14:37:55.492Z,6.38
2019-03-26T14:39:05.420Z,6.36
2019-03-26T14:40:15.095Z,6.29
2019-03-26T14:41:25.016Z,6.38
2019-03-26T14:42:34.940Z,6.41
2019-03-26T14:43:44.867Z,6.32
2019-03-26T14:44:55.085Z,6.36
2019-03-26T14:46:05.053Z,6.22
2019-03-26T14:47:14.740Z,6.17
2019-03-26T14:48:24.763Z,6.13
2019-03-26T14:49:34.692Z,6.1
2019-03-26T14:50:44.625Z,6.15
2019-03-26T14:51:54.550Z,6.02
2019-03-26T14:53:04.484Z,6.12
2019-03-26T14:54:14.207Z,6.09
2019-03-26T14:55:24.128Z,6.19
2019-03-26T14:56:34.058Z,6.1
2019-03-26T14:57:43.994Z,6.1
2019-03-26T14:58:53.937Z,5.91
2019-03-26T15:00:03.994Z,5.94
2019-03-26T15:01:13.941Z,5.88
2019-03-26T15:02:23.873Z,5.87
2019-03-26T15:03:33.805Z,5.97
2019-03-26T15:04:43.727Z,5.91
2019-03-26T15:05:53.650Z,5.91
2019-03-26T15:07:03.669Z,5.83
2019-03-26T15:08:13.599Z,5.92
2019-03-26T15:09:23.560Z,5.88
2019-03-26T15:10:33.494Z,5.91
2019-03-26T15:11:43.478Z,5.97
2019-03-26T15:12:53.410Z,6.05
2019-03-26T15:14:03.341Z,6.02
2019-03-26T15:15:13.268Z,5.94
2019-03-26T15:16:23.255Z,6.02
2019-03-26T15:17:33.287Z,5.91
2019-03-26T15:18:43.217Z,6.06
2019-03-26T15:19:55.019Z,6.06
2019-03-26T15:21:05.094Z,5.99
2019-03-26T15:22:15.019Z,6.01
2019-03-26T15:23:24.944Z,5.9
2019-03-26T15:24:34.880Z,5.81
2019-03-26T15:25:44.806Z,5.8
2019-03-26T15:26:54.748Z,5.74
2019-03-26T15:28:04.430Z,5.65
2019-03-26T15:29:17.091Z,5.61
2019-03-26T15:30:27.028Z,5.52
2019-03-26T15:31:36.948Z,5.46
2019-03-26T15:32:46.885Z,5.43
2019-03-26T15:33:56.835Z,5.41